sensor_id;sensor_type;location;lat;lon;timestamp;P1;durP1;ratioP1;P2;durP2;ratioP2
21101;SDS011;10709;49.006;12.100;2023-06-22T00:01:21;11.20;;;7.25;;
21101;SDS011;10709;49.006;12.100;2023-06-22T00:03:51;9.18;;;7.18;;
21101;SDS011;10709;49.006;12.100;2023-06-22T00:06:19;9.45;;;6.93;;
21101;SDS011;10709;49.006;12.100;2023-06-22T00:08:45;10.65;;;7.50;;
21101;SDS011;10709;49.006;12.100;2023-06-22T00:11:13;9.07;;;7.10;;
21101;SDS011;10709;49.006;12.100;2023-06-22T00:13:41;10.93;;;9.57;;
21101;SDS011;10709;49.006;12.100;2023-06-22T00:16:09;9.77;;;7.38;;
21101;SDS011;10709;49.006;12.100;2023-06-22T00:18:38;11.63;;;7.32;;
21101;SDS011;10709;49.006;12.100;2023-06-22T00:21:05;7.63;;;6.82;;
21101;SDS011;10709;49.006;12.100;2023-06-22T00:23:33;9.50;;;7.75;;
21101;SDS011;10709;49.006;12.100;2023-06-22T00:26:01;9.45;;;7.47;;
21101;SDS011;10709;49.006;12.100;2023-06-22T00:28:27;8.50;;;6.75;;
21101;SDS011;10709;49.006;12.100;2023-06-22T00:30:55;9.27;;;7.38;;
21101;SDS011;10709;49.006;12.100;2023-06-22T00:33:21;8.90;;;7.25;;
21101;SDS011;10709;49.006;12.100;2023-06-22T00:35:48;9.35;;;7.18;;
21101;SDS011;10709;49.006;12.100;2023-06-22T00:38:16;10.48;;;7.32;;
21101;SDS011;10709;49.006;12.100;2023-06-22T00:40:42;11.57;;;8.40;;
21101;SDS011;10709;49.006;12.100;2023-06-22T00:43:09;9.23;;;7.47;;
21101;SDS011;10709;49.006;12.100;2023-06-22T00:45:35;10.23;;;8.23;;
21101;SDS011;10709;49.006;12.100;2023-06-22T00:48:02;11.05;;;9.10;;
21101;SDS011;10709;49.006;12.100;2023-06-22T00:50:30;10.45;;;8.95;;
21101;SDS011;10709;49.006;12.100;2023-06-22T00:53:03;9.73;;;7.57;;
21101;SDS011;10709;49.006;12.100;2023-06-22T00:55:36;9.32;;;6.88;;
21101;SDS011;10709;49.006;12.100;2023-06-22T00:58:05;8.57;;;6.60;;
21101;SDS011;10709;49.006;12.100;2023-06-22T01:00:37;7.65;;;6.60;;
21101;SDS011;10709;49.006;12.100;2023-06-22T01:03:07;7.25;;;6.30;;
21101;SDS011;10709;49.006;12.100;2023-06-22T01:05:36;7.57;;;6.40;;
21101;SDS011;10709;49.006;12.100;2023-06-22T01:08:12;9.00;;;6.35;;
21101;SDS011;10709;49.006;12.100;2023-06-22T01:10:51;7.57;;;6.70;;
21101;SDS011;10709;49.006;12.100;2023-06-22T01:13:28;7.22;;;6.53;;
21101;SDS011;10709;49.006;12.100;2023-06-22T01:16:00;7.93;;;7.00;;
21101;SDS011;10709;49.006;12.100;2023-06-22T01:18:31;8.13;;;6.60;;
21101;SDS011;10709;49.006;12.100;2023-06-22T01:21:04;9.57;;;7.53;;
21101;SDS011;10709;49.006;12.100;2023-06-22T01:26:56;7.65;;;6.90;;
21101;SDS011;10709;49.006;12.100;2023-06-22T01:29:31;8.63;;;7.38;;
21101;SDS011;10709;49.006;12.100;2023-06-22T01:32:02;10.32;;;7.38;;
21101;SDS011;10709;49.006;12.100;2023-06-22T01:34:34;11.13;;;8.25;;
21101;SDS011;10709;49.006;12.100;2023-06-22T01:42:26;9.80;;;7.00;;
21101;SDS011;10709;49.006;12.100;2023-06-22T01:44:54;8.38;;;6.90;;
21101;SDS011;10709;49.006;12.100;2023-06-22T01:47:21;9.18;;;7.72;;
21101;SDS011;10709;49.006;12.100;2023-06-22T01:49:52;8.75;;;7.07;;
21101;SDS011;10709;49.006;12.100;2023-06-22T01:52:19;8.00;;;7.20;;
21101;SDS011;10709;49.006;12.100;2023-06-22T01:54:47;8.70;;;6.97;;
21101;SDS011;10709;49.006;12.100;2023-06-22T01:57:14;10.80;;;8.93;;
21101;SDS011;10709;49.006;12.100;2023-06-22T02:02:19;12.20;;;8.35;;
21101;SDS011;10709;49.006;12.100;2023-06-22T02:04:57;8.85;;;6.95;;
21101;SDS011;10709;49.006;12.100;2023-06-22T02:07:30;10.77;;;7.65;;
21101;SDS011;10709;49.006;12.100;2023-06-22T02:09:59;9.40;;;8.20;;
21101;SDS011;10709;49.006;12.100;2023-06-22T02:12:28;9.38;;;7.43;;
21101;SDS011;10709;49.006;12.100;2023-06-22T02:14:57;8.50;;;7.40;;
21101;SDS011;10709;49.006;12.100;2023-06-22T02:17:27;10.10;;;7.55;;
21101;SDS011;10709;49.006;12.100;2023-06-22T02:19:54;8.73;;;7.18;;
21101;SDS011;10709;49.006;12.100;2023-06-22T02:22:21;8.63;;;7.55;;
21101;SDS011;10709;49.006;12.100;2023-06-22T02:24:47;8.90;;;7.10;;
21101;SDS011;10709;49.006;12.100;2023-06-22T02:27:13;9.10;;;7.38;;
21101;SDS011;10709;49.006;12.100;2023-06-22T02:29:40;11.93;;;7.90;;
21101;SDS011;10709;49.006;12.100;2023-06-22T02:32:06;8.75;;;7.22;;
21101;SDS011;10709;49.006;12.100;2023-06-22T02:34:33;8.93;;;7.60;;
21101;SDS011;10709;49.006;12.100;2023-06-22T02:37:00;10.45;;;7.75;;
21101;SDS011;10709;49.006;12.100;2023-06-22T02:39:29;9.52;;;7.35;;
21101;SDS011;10709;49.006;12.100;2023-06-22T02:41:55;7.20;;;6.47;;
21101;SDS011;10709;49.006;12.100;2023-06-22T02:44:22;9.00;;;7.65;;
21101;SDS011;10709;49.006;12.100;2023-06-22T02:46:49;8.75;;;7.53;;
21101;SDS011;10709;49.006;12.100;2023-06-22T02:49:15;9.55;;;7.25;;
21101;SDS011;10709;49.006;12.100;2023-06-22T02:51:44;11.15;;;7.65;;
21101;SDS011;10709;49.006;12.100;2023-06-22T02:54:12;9.05;;;7.00;;
21101;SDS011;10709;49.006;12.100;2023-06-22T02:56:38;8.02;;;6.93;;
21101;SDS011;10709;49.006;12.100;2023-06-22T02:59:07;8.50;;;7.45;;
21101;SDS011;10709;49.006;12.100;2023-06-22T03:01:33;8.18;;;7.10;;
21101;SDS011;10709;49.006;12.100;2023-06-22T03:04:06;8.65;;;6.90;;
21101;SDS011;10709;49.006;12.100;2023-06-22T03:06:33;9.70;;;7.15;;
21101;SDS011;10709;49.006;12.100;2023-06-22T03:09:04;8.00;;;7.20;;
21101;SDS011;10709;49.006;12.100;2023-06-22T03:11:31;10.05;;;6.88;;
21101;SDS011;10709;49.006;12.100;2023-06-22T03:13:58;11.07;;;8.43;;
21101;SDS011;10709;49.006;12.100;2023-06-22T03:16:28;9.27;;;7.10;;
21101;SDS011;10709;49.006;12.100;2023-06-22T03:18:56;9.85;;;7.60;;
21101;SDS011;10709;49.006;12.100;2023-06-22T03:21:23;9.18;;;7.72;;
21101;SDS011;10709;49.006;12.100;2023-06-22T03:23:49;10.95;;;9.80;;
21101;SDS011;10709;49.006;12.100;2023-06-22T03:26:16;9.63;;;8.40;;
21101;SDS011;10709;49.006;12.100;2023-06-22T03:28:43;10.15;;;7.68;;
21101;SDS011;10709;49.006;12.100;2023-06-22T03:31:10;9.68;;;7.90;;
21101;SDS011;10709;49.006;12.100;2023-06-22T03:33:37;9.10;;;7.40;;
21101;SDS011;10709;49.006;12.100;2023-06-22T03:36:03;9.02;;;7.10;;
21101;SDS011;10709;49.006;12.100;2023-06-22T03:38:30;8.50;;;7.53;;
21101;SDS011;10709;49.006;12.100;2023-06-22T03:40:56;9.63;;;7.95;;
21101;SDS011;10709;49.006;12.100;2023-06-22T03:43:23;10.48;;;8.55;;
21101;SDS011;10709;49.006;12.100;2023-06-22T03:45:52;14.48;;;10.10;;
21101;SDS011;10709;49.006;12.100;2023-06-22T03:48:18;11.55;;;9.02;;
21101;SDS011;10709;49.006;12.100;2023-06-22T03:50:45;10.45;;;9.23;;
21101;SDS011;10709;49.006;12.100;2023-06-22T03:53:11;9.55;;;7.00;;
21101;SDS011;10709;49.006;12.100;2023-06-22T03:55:42;12.25;;;7.90;;
21101;SDS011;10709;49.006;12.100;2023-06-22T03:58:16;12.30;;;9.95;;
21101;SDS011;10709;49.006;12.100;2023-06-22T04:00:45;15.00;;;9.90;;
21101;SDS011;10709;49.006;12.100;2023-06-22T04:03:13;9.18;;;8.23;;
21101;SDS011;10709;49.006;12.100;2023-06-22T04:05:40;9.50;;;8.00;;
21101;SDS011;10709;49.006;12.100;2023-06-22T04:08:08;11.38;;;9.65;;
21101;SDS011;10709;49.006;12.100;2023-06-22T04:10:34;15.63;;;11.98;;
21101;SDS011;10709;49.006;12.100;2023-06-22T04:13:01;14.30;;;12.68;;
21101;SDS011;10709;49.006;12.100;2023-06-22T04:15:28;12.40;;;10.20;;
21101;SDS011;10709;49.006;12.100;2023-06-22T04:17:56;18.67;;;13.57;;
21101;SDS011;10709;49.006;12.100;2023-06-22T04:20:23;15.23;;;12.95;;
21101;SDS011;10709;49.006;12.100;2023-06-22T04:22:55;14.52;;;12.07;;
21101;SDS011;10709;49.006;12.100;2023-06-22T04:25:22;14.75;;;11.48;;
21101;SDS011;10709;49.006;12.100;2023-06-22T04:27:51;12.82;;;10.77;;
21101;SDS011;10709;49.006;12.100;2023-06-22T04:30:17;14.60;;;12.30;;
21101;SDS011;10709;49.006;12.100;2023-06-22T04:32:44;16.58;;;12.75;;
21101;SDS011;10709;49.006;12.100;2023-06-22T04:35:11;15.10;;;11.23;;
21101;SDS011;10709;49.006;12.100;2023-06-22T04:37:38;13.93;;;12.10;;
21101;SDS011;10709;49.006;12.100;2023-06-22T04:40:05;12.57;;;10.25;;
21101;SDS011;10709;49.006;12.100;2023-06-22T04:42:33;10.80;;;9.13;;
21101;SDS011;10709;49.006;12.100;2023-06-22T04:45:01;15.85;;;12.80;;
21101;SDS011;10709;49.006;12.100;2023-06-22T04:47:28;12.85;;;11.48;;
21101;SDS011;10709;49.006;12.100;2023-06-22T04:49:55;13.70;;;11.55;;
21101;SDS011;10709;49.006;12.100;2023-06-22T04:52:21;12.55;;;10.07;;
21101;SDS011;10709;49.006;12.100;2023-06-22T04:54:48;10.98;;;8.98;;
21101;SDS011;10709;49.006;12.100;2023-06-22T04:57:16;12.63;;;11.32;;
21101;SDS011;10709;49.006;12.100;2023-06-22T04:59:43;16.55;;;12.00;;
21101;SDS011;10709;49.006;12.100;2023-06-22T05:02:11;13.90;;;12.38;;
21101;SDS011;10709;49.006;12.100;2023-06-22T05:04:41;14.18;;;12.48;;
21101;SDS011;10709;49.006;12.100;2023-06-22T05:07:08;12.75;;;10.82;;
21101;SDS011;10709;49.006;12.100;2023-06-22T05:09:35;12.15;;;10.85;;
21101;SDS011;10709;49.006;12.100;2023-06-22T05:12:02;14.10;;;12.18;;
21101;SDS011;10709;49.006;12.100;2023-06-22T05:14:29;16.52;;;12.45;;
21101;SDS011;10709;49.006;12.100;2023-06-22T05:16:56;13.13;;;11.60;;
21101;SDS011;10709;49.006;12.100;2023-06-22T05:19:44;12.27;;;10.60;;
21101;SDS011;10709;49.006;12.100;2023-06-22T05:22:14;13.90;;;12.50;;
21101;SDS011;10709;49.006;12.100;2023-06-22T05:24:42;13.93;;;12.18;;
21101;SDS011;10709;49.006;12.100;2023-06-22T05:27:12;14.82;;;12.82;;
21101;SDS011;10709;49.006;12.100;2023-06-22T05:29:39;12.35;;;10.70;;
21101;SDS011;10709;49.006;12.100;2023-06-22T05:32:05;10.70;;;9.70;;
21101;SDS011;10709;49.006;12.100;2023-06-22T05:34:32;13.43;;;11.32;;
21101;SDS011;10709;49.006;12.100;2023-06-22T05:36:59;14.23;;;12.15;;
21101;SDS011;10709;49.006;12.100;2023-06-22T05:39:26;14.18;;;12.75;;
21101;SDS011;10709;49.006;12.100;2023-06-22T05:41:52;13.73;;;12.13;;
21101;SDS011;10709;49.006;12.100;2023-06-22T05:44:19;12.85;;;10.30;;
21101;SDS011;10709;49.006;12.100;2023-06-22T05:46:47;14.10;;;11.65;;
21101;SDS011;10709;49.006;12.100;2023-06-22T05:49:14;15.20;;;11.82;;
21101;SDS011;10709;49.006;12.100;2023-06-22T05:51:44;13.07;;;10.82;;
21101;SDS011;10709;49.006;12.100;2023-06-22T05:54:11;14.70;;;11.65;;
21101;SDS011;10709;49.006;12.100;2023-06-22T05:56:43;13.23;;;11.77;;
21101;SDS011;10709;49.006;12.100;2023-06-22T05:59:10;13.00;;;11.07;;
21101;SDS011;10709;49.006;12.100;2023-06-22T06:01:36;11.88;;;10.43;;
21101;SDS011;10709;49.006;12.100;2023-06-22T06:04:06;14.82;;;11.05;;
21101;SDS011;10709;49.006;12.100;2023-06-22T06:06:35;14.75;;;11.57;;
21101;SDS011;10709;49.006;12.100;2023-06-22T06:09:04;11.40;;;10.10;;
21101;SDS011;10709;49.006;12.100;2023-06-22T06:11:30;10.93;;;9.80;;
21101;SDS011;10709;49.006;12.100;2023-06-22T06:13:57;13.30;;;11.00;;
21101;SDS011;10709;49.006;12.100;2023-06-22T06:16:24;11.90;;;9.90;;
21101;SDS011;10709;49.006;12.100;2023-06-22T06:18:50;11.63;;;10.38;;
21101;SDS011;10709;49.006;12.100;2023-06-22T06:21:17;12.00;;;10.80;;
21101;SDS011;10709;49.006;12.100;2023-06-22T06:23:44;11.80;;;8.50;;
21101;SDS011;10709;49.006;12.100;2023-06-22T06:26:10;13.13;;;10.07;;
21101;SDS011;10709;49.006;12.100;2023-06-22T06:28:40;12.25;;;10.95;;
21101;SDS011;10709;49.006;12.100;2023-06-22T06:31:07;13.40;;;9.45;;
21101;SDS011;10709;49.006;12.100;2023-06-22T06:33:35;11.20;;;9.93;;
21101;SDS011;10709;49.006;12.100;2023-06-22T06:36:02;10.30;;;9.18;;
21101;SDS011;10709;49.006;12.100;2023-06-22T06:38:32;10.70;;;9.20;;
21101;SDS011;10709;49.006;12.100;2023-06-22T06:40:59;9.32;;;7.78;;
21101;SDS011;10709;49.006;12.100;2023-06-22T06:43:25;11.38;;;9.73;;
21101;SDS011;10709;49.006;12.100;2023-06-22T06:45:56;10.38;;;9.30;;
21101;SDS011;10709;49.006;12.100;2023-06-22T06:48:24;10.73;;;9.32;;
21101;SDS011;10709;49.006;12.100;2023-06-22T06:50:50;9.77;;;8.73;;
21101;SDS011;10709;49.006;12.100;2023-06-22T06:53:17;11.80;;;9.27;;
21101;SDS011;10709;49.006;12.100;2023-06-22T06:55:45;10.85;;;9.20;;
21101;SDS011;10709;49.006;12.100;2023-06-22T06:58:12;9.85;;;8.85;;
21101;SDS011;10709;49.006;12.100;2023-06-22T07:00:42;14.48;;;8.45;;
21101;SDS011;10709;49.006;12.100;2023-06-22T07:03:10;12.40;;;8.15;;
21101;SDS011;10709;49.006;12.100;2023-06-22T07:05:36;11.40;;;7.60;;
21101;SDS011;10709;49.006;12.100;2023-06-22T07:08:03;10.95;;;7.57;;
21101;SDS011;10709;49.006;12.100;2023-06-22T07:10:31;11.85;;;9.30;;
21101;SDS011;10709;49.006;12.100;2023-06-22T07:12:58;10.82;;;8.38;;
21101;SDS011;10709;49.006;12.100;2023-06-22T07:15:25;7.85;;;7.05;;
21101;SDS011;10709;49.006;12.100;2023-06-22T07:17:52;10.35;;;7.57;;
21101;SDS011;10709;49.006;12.100;2023-06-22T07:20:19;12.65;;;8.57;;
21101;SDS011;10709;49.006;12.100;2023-06-22T07:22:46;7.97;;;7.07;;
21101;SDS011;10709;49.006;12.100;2023-06-22T07:25:12;8.05;;;6.57;;
21101;SDS011;10709;49.006;12.100;2023-06-22T07:27:55;9.95;;;7.93;;
21101;SDS011;10709;49.006;12.100;2023-06-22T07:30:30;8.73;;;7.38;;
21101;SDS011;10709;49.006;12.100;2023-06-22T07:32:59;9.20;;;6.38;;
21101;SDS011;10709;49.006;12.100;2023-06-22T07:35:30;10.10;;;6.63;;
21101;SDS011;10709;49.006;12.100;2023-06-22T07:37:57;9.30;;;6.65;;
21101;SDS011;10709;49.006;12.100;2023-06-22T07:40:24;7.97;;;6.05;;
21101;SDS011;10709;49.006;12.100;2023-06-22T07:42:50;10.80;;;6.53;;
21101;SDS011;10709;49.006;12.100;2023-06-22T07:45:18;7.85;;;6.40;;
21101;SDS011;10709;49.006;12.100;2023-06-22T07:47:46;11.38;;;7.20;;
21101;SDS011;10709;49.006;12.100;2023-06-22T07:50:13;13.50;;;7.40;;
21101;SDS011;10709;49.006;12.100;2023-06-22T07:52:40;10.35;;;6.65;;
21101;SDS011;10709;49.006;12.100;2023-06-22T07:55:06;8.43;;;6.28;;
21101;SDS011;10709;49.006;12.100;2023-06-22T07:57:33;9.00;;;6.47;;
21101;SDS011;10709;49.006;12.100;2023-06-22T08:00:01;8.88;;;5.80;;
21101;SDS011;10709;49.006;12.100;2023-06-22T08:02:39;9.85;;;6.05;;
21101;SDS011;10709;49.006;12.100;2023-06-22T08:05:10;10.73;;;6.25;;
21101;SDS011;10709;49.006;12.100;2023-06-22T08:07:40;7.75;;;5.95;;
21101;SDS011;10709;49.006;12.100;2023-06-22T08:10:11;9.40;;;6.22;;
21101;SDS011;10709;49.006;12.100;2023-06-22T08:12:39;10.52;;;5.78;;
21101;SDS011;10709;49.006;12.100;2023-06-22T08:15:06;9.65;;;5.80;;
21101;SDS011;10709;49.006;12.100;2023-06-22T08:17:34;9.48;;;5.70;;
21101;SDS011;10709;49.006;12.100;2023-06-22T08:20:01;8.30;;;5.90;;
21101;SDS011;10709;49.006;12.100;2023-06-22T08:22:28;8.75;;;5.32;;
21101;SDS011;10709;49.006;12.100;2023-06-22T08:24:56;11.15;;;5.85;;
21101;SDS011;10709;49.006;12.100;2023-06-22T08:27:22;8.63;;;5.25;;
21101;SDS011;10709;49.006;12.100;2023-06-22T08:29:52;6.78;;;5.30;;
21101;SDS011;10709;49.006;12.100;2023-06-22T08:32:24;8.38;;;5.30;;
21101;SDS011;10709;49.006;12.100;2023-06-22T08:34:53;8.68;;;5.43;;
21101;SDS011;10709;49.006;12.100;2023-06-22T08:37:21;10.60;;;5.90;;
21101;SDS011;10709;49.006;12.100;2023-06-22T08:39:50;10.65;;;5.40;;
21101;SDS011;10709;49.006;12.100;2023-06-22T08:42:17;8.75;;;6.10;;
21101;SDS011;10709;49.006;12.100;2023-06-22T08:44:44;7.45;;;5.30;;
21101;SDS011;10709;49.006;12.100;2023-06-22T08:47:12;7.43;;;5.57;;
21101;SDS011;10709;49.006;12.100;2023-06-22T08:49:38;8.02;;;5.15;;
21101;SDS011;10709;49.006;12.100;2023-06-22T08:52:05;7.75;;;5.18;;
21101;SDS011;10709;49.006;12.100;2023-06-22T08:54:33;8.80;;;5.40;;
21101;SDS011;10709;49.006;12.100;2023-06-22T08:57:02;8.13;;;5.57;;
21101;SDS011;10709;49.006;12.100;2023-06-22T08:59:30;8.68;;;6.28;;
21101;SDS011;10709;49.006;12.100;2023-06-22T09:01:58;7.15;;;5.85;;
21101;SDS011;10709;49.006;12.100;2023-06-22T09:04:26;9.18;;;5.70;;
21101;SDS011;10709;49.006;12.100;2023-06-22T09:06:53;11.10;;;5.50;;
21101;SDS011;10709;49.006;12.100;2023-06-22T09:09:21;6.43;;;5.75;;
21101;SDS011;10709;49.006;12.100;2023-06-22T09:11:47;10.52;;;5.43;;
21101;SDS011;10709;49.006;12.100;2023-06-22T09:14:14;9.25;;;5.68;;
21101;SDS011;10709;49.006;12.100;2023-06-22T09:16:40;7.03;;;5.05;;
21101;SDS011;10709;49.006;12.100;2023-06-22T09:19:07;6.15;;;5.05;;
21101;SDS011;10709;49.006;12.100;2023-06-22T09:21:33;9.18;;;5.05;;
21101;SDS011;10709;49.006;12.100;2023-06-22T09:24:00;7.45;;;4.70;;
21101;SDS011;10709;49.006;12.100;2023-06-22T09:26:26;7.38;;;5.15;;
21101;SDS011;10709;49.006;12.100;2023-06-22T09:28:53;9.32;;;5.45;;
21101;SDS011;10709;49.006;12.100;2023-06-22T09:31:23;6.53;;;4.80;;
21101;SDS011;10709;49.006;12.100;2023-06-22T09:33:52;8.38;;;5.10;;
21101;SDS011;10709;49.006;12.100;2023-06-22T09:36:20;6.93;;;5.50;;
21101;SDS011;10709;49.006;12.100;2023-06-22T09:38:48;9.18;;;5.47;;
21101;SDS011;10709;49.006;12.100;2023-06-22T09:41:15;7.78;;;4.90;;
21101;SDS011;10709;49.006;12.100;2023-06-22T09:43:42;12.60;;;5.18;;
21101;SDS011;10709;49.006;12.100;2023-06-22T09:46:16;7.60;;;4.53;;
21101;SDS011;10709;49.006;12.100;2023-06-22T09:48:43;10.30;;;4.85;;
21101;SDS011;10709;49.006;12.100;2023-06-22T09:51:09;8.88;;;5.50;;
21101;SDS011;10709;49.006;12.100;2023-06-22T09:53:36;9.30;;;5.35;;
21101;SDS011;10709;49.006;12.100;2023-06-22T09:56:08;8.40;;;4.82;;
21101;SDS011;10709;49.006;12.100;2023-06-22T09:58:44;7.22;;;4.82;;
21101;SDS011;10709;49.006;12.100;2023-06-22T10:01:12;11.30;;;5.40;;
21101;SDS011;10709;49.006;12.100;2023-06-22T10:03:42;9.27;;;5.38;;
21101;SDS011;10709;49.006;12.100;2023-06-22T10:06:09;8.70;;;5.10;;
21101;SDS011;10709;49.006;12.100;2023-06-22T10:08:35;11.15;;;6.07;;
21101;SDS011;10709;49.006;12.100;2023-06-22T10:11:03;10.23;;;5.20;;
21101;SDS011;10709;49.006;12.100;2023-06-22T10:13:29;8.60;;;5.30;;
21101;SDS011;10709;49.006;12.100;2023-06-22T10:15:56;8.68;;;5.88;;
21101;SDS011;10709;49.006;12.100;2023-06-22T10:18:23;7.95;;;5.25;;
21101;SDS011;10709;49.006;12.100;2023-06-22T10:20:51;9.05;;;5.65;;
21101;SDS011;10709;49.006;12.100;2023-06-22T10:23:18;9.95;;;5.72;;
21101;SDS011;10709;49.006;12.100;2023-06-22T10:25:46;9.82;;;5.88;;
21101;SDS011;10709;49.006;12.100;2023-06-22T10:28:14;8.32;;;5.40;;
21101;SDS011;10709;49.006;12.100;2023-06-22T10:30:40;10.00;;;5.78;;
21101;SDS011;10709;49.006;12.100;2023-06-22T10:33:10;9.63;;;5.63;;
21101;SDS011;10709;49.006;12.100;2023-06-22T10:35:38;9.88;;;6.50;;
21101;SDS011;10709;49.006;12.100;2023-06-22T10:38:05;12.10;;;5.60;;
21101;SDS011;10709;49.006;12.100;2023-06-22T10:40:32;10.75;;;6.35;;
21101;SDS011;10709;49.006;12.100;2023-06-22T10:42:59;9.63;;;5.85;;
21101;SDS011;10709;49.006;12.100;2023-06-22T10:45:27;10.25;;;5.63;;
21101;SDS011;10709;49.006;12.100;2023-06-22T10:47:55;10.77;;;5.88;;
21101;SDS011;10709;49.006;12.100;2023-06-22T10:50:21;11.07;;;5.90;;
21101;SDS011;10709;49.006;12.100;2023-06-22T10:52:50;9.27;;;5.90;;
21101;SDS011;10709;49.006;12.100;2023-06-22T10:55:17;8.95;;;5.22;;
21101;SDS011;10709;49.006;12.100;2023-06-22T10:57:44;13.57;;;5.68;;
21101;SDS011;10709;49.006;12.100;2023-06-22T11:00:14;11.13;;;5.80;;
21101;SDS011;10709;49.006;12.100;2023-06-22T11:02:43;7.63;;;5.10;;
21101;SDS011;10709;49.006;12.100;2023-06-22T11:05:10;12.00;;;5.78;;
21101;SDS011;10709;49.006;12.100;2023-06-22T11:07:42;7.95;;;6.03;;
21101;SDS011;10709;49.006;12.100;2023-06-22T11:10:10;11.70;;;5.53;;
21101;SDS011;10709;49.006;12.100;2023-06-22T11:12:37;10.77;;;6.15;;
21101;SDS011;10709;49.006;12.100;2023-06-22T11:15:04;14.02;;;6.00;;
21101;SDS011;10709;49.006;12.100;2023-06-22T11:17:31;12.02;;;5.47;;
21101;SDS011;10709;49.006;12.100;2023-06-22T11:19:58;11.43;;;6.00;;
21101;SDS011;10709;49.006;12.100;2023-06-22T11:22:26;9.88;;;5.85;;
21101;SDS011;10709;49.006;12.100;2023-06-22T11:24:53;8.85;;;6.28;;
21101;SDS011;10709;49.006;12.100;2023-06-22T11:27:20;11.13;;;5.88;;
21101;SDS011;10709;49.006;12.100;2023-06-22T11:29:48;9.43;;;5.60;;
21101;SDS011;10709;49.006;12.100;2023-06-22T11:32:16;10.95;;;6.10;;
21101;SDS011;10709;49.006;12.100;2023-06-22T11:34:43;10.52;;;6.10;;
21101;SDS011;10709;49.006;12.100;2023-06-22T11:37:09;9.27;;;5.95;;
21101;SDS011;10709;49.006;12.100;2023-06-22T11:39:36;11.38;;;6.45;;
21101;SDS011;10709;49.006;12.100;2023-06-22T11:42:08;7.88;;;5.82;;
21101;SDS011;10709;49.006;12.100;2023-06-22T11:44:36;9.02;;;6.07;;
21101;SDS011;10709;49.006;12.100;2023-06-22T11:47:03;9.20;;;5.60;;
21101;SDS011;10709;49.006;12.100;2023-06-22T11:49:30;9.68;;;5.93;;
21101;SDS011;10709;49.006;12.100;2023-06-22T11:51:57;13.00;;;5.85;;
21101;SDS011;10709;49.006;12.100;2023-06-22T11:54:24;10.43;;;5.63;;
21101;SDS011;10709;49.006;12.100;2023-06-22T11:56:50;13.13;;;6.30;;
21101;SDS011;10709;49.006;12.100;2023-06-22T11:59:17;13.48;;;6.15;;
21101;SDS011;10709;49.006;12.100;2023-06-22T12:01:45;11.73;;;6.63;;
21101;SDS011;10709;49.006;12.100;2023-06-22T12:04:14;7.25;;;6.10;;
21101;SDS011;10709;49.006;12.100;2023-06-22T12:06:41;9.35;;;6.10;;
21101;SDS011;10709;49.006;12.100;2023-06-22T12:09:09;13.93;;;6.05;;
21101;SDS011;10709;49.006;12.100;2023-06-22T12:11:36;14.23;;;6.72;;
21101;SDS011;10709;49.006;12.100;2023-06-22T12:14:10;11.20;;;6.32;;
21101;SDS011;10709;49.006;12.100;2023-06-22T12:16:36;9.75;;;6.00;;
21101;SDS011;10709;49.006;12.100;2023-06-22T12:19:05;11.05;;;6.10;;
21101;SDS011;10709;49.006;12.100;2023-06-22T12:21:31;9.20;;;6.38;;
21101;SDS011;10709;49.006;12.100;2023-06-22T12:24:00;10.45;;;5.82;;
21101;SDS011;10709;49.006;12.100;2023-06-22T12:26:27;11.25;;;6.20;;
21101;SDS011;10709;49.006;12.100;2023-06-22T12:28:54;9.55;;;6.10;;
21101;SDS011;10709;49.006;12.100;2023-06-22T12:31:20;11.95;;;6.00;;
21101;SDS011;10709;49.006;12.100;2023-06-22T12:33:47;9.88;;;5.85;;
21101;SDS011;10709;49.006;12.100;2023-06-22T12:36:13;12.80;;;6.25;;
21101;SDS011;10709;49.006;12.100;2023-06-22T12:38:43;10.38;;;5.78;;
21101;SDS011;10709;49.006;12.100;2023-06-22T12:41:09;9.80;;;5.38;;
21101;SDS011;10709;49.006;12.100;2023-06-22T12:43:36;12.00;;;6.43;;
21101;SDS011;10709;49.006;12.100;2023-06-22T12:46:02;13.30;;;6.30;;
21101;SDS011;10709;49.006;12.100;2023-06-22T12:48:29;8.65;;;6.00;;
21101;SDS011;10709;49.006;12.100;2023-06-22T12:50:57;13.75;;;6.07;;
21101;SDS011;10709;49.006;12.100;2023-06-22T12:53:23;11.60;;;5.90;;
21101;SDS011;10709;49.006;12.100;2023-06-22T12:55:50;11.85;;;5.88;;
21101;SDS011;10709;49.006;12.100;2023-06-22T12:58:16;7.53;;;5.75;;
21101;SDS011;10709;49.006;12.100;2023-06-22T13:00:43;13.27;;;5.78;;
21101;SDS011;10709;49.006;12.100;2023-06-22T13:03:10;11.55;;;6.32;;
21101;SDS011;10709;49.006;12.100;2023-06-22T13:05:37;11.68;;;5.90;;
21101;SDS011;10709;49.006;12.100;2023-06-22T13:08:04;10.98;;;6.22;;
21101;SDS011;10709;49.006;12.100;2023-06-22T13:10:31;12.70;;;5.80;;
21101;SDS011;10709;49.006;12.100;2023-06-22T13:12:58;11.02;;;6.10;;
21101;SDS011;10709;49.006;12.100;2023-06-22T13:15:30;12.98;;;6.07;;
21101;SDS011;10709;49.006;12.100;2023-06-22T13:17:57;10.23;;;5.70;;
21101;SDS011;10709;49.006;12.100;2023-06-22T13:20:23;12.05;;;6.00;;
21101;SDS011;10709;49.006;12.100;2023-06-22T13:22:50;9.02;;;5.78;;
21101;SDS011;10709;49.006;12.100;2023-06-22T13:25:17;10.88;;;6.05;;
21101;SDS011;10709;49.006;12.100;2023-06-22T13:27:45;11.05;;;5.15;;
21101;SDS011;10709;49.006;12.100;2023-06-22T13:30:14;8.80;;;5.78;;
21101;SDS011;10709;49.006;12.100;2023-06-22T13:32:41;11.40;;;6.25;;
21101;SDS011;10709;49.006;12.100;2023-06-22T13:35:10;11.63;;;6.22;;
21101;SDS011;10709;49.006;12.100;2023-06-22T13:37:36;12.00;;;5.88;;
21101;SDS011;10709;49.006;12.100;2023-06-22T13:40:04;12.18;;;5.93;;
21101;SDS011;10709;49.006;12.100;2023-06-22T13:42:33;12.60;;;6.30;;
21101;SDS011;10709;49.006;12.100;2023-06-22T13:45:01;9.85;;;5.90;;
21101;SDS011;10709;49.006;12.100;2023-06-22T13:47:28;13.77;;;6.30;;
21101;SDS011;10709;49.006;12.100;2023-06-22T13:49:57;12.10;;;6.00;;
21101;SDS011;10709;49.006;12.100;2023-06-22T13:52:24;10.68;;;6.28;;
21101;SDS011;10709;49.006;12.100;2023-06-22T13:54:50;12.20;;;6.28;;
21101;SDS011;10709;49.006;12.100;2023-06-22T13:57:18;15.68;;;6.70;;
21101;SDS011;10709;49.006;12.100;2023-06-22T13:59:45;9.90;;;5.43;;
21101;SDS011;10709;49.006;12.100;2023-06-22T14:02:12;12.43;;;6.43;;
21101;SDS011;10709;49.006;12.100;2023-06-22T14:04:38;10.68;;;6.18;;
21101;SDS011;10709;49.006;12.100;2023-06-22T14:07:05;12.23;;;6.00;;
21101;SDS011;10709;49.006;12.100;2023-06-22T14:09:33;13.25;;;6.18;;
21101;SDS011;10709;49.006;12.100;2023-06-22T14:12:04;10.13;;;5.65;;
21101;SDS011;10709;49.006;12.100;2023-06-22T14:14:32;9.52;;;6.40;;
21101;SDS011;10709;49.006;12.100;2023-06-22T14:16:59;12.95;;;6.22;;
21101;SDS011;10709;49.006;12.100;2023-06-22T14:19:26;12.20;;;6.45;;
21101;SDS011;10709;49.006;12.100;2023-06-22T14:21:52;11.32;;;6.18;;
21101;SDS011;10709;49.006;12.100;2023-06-22T14:24:22;11.95;;;6.15;;
21101;SDS011;10709;49.006;12.100;2023-06-22T14:26:51;12.00;;;6.13;;
21101;SDS011;10709;49.006;12.100;2023-06-22T14:29:18;9.00;;;5.30;;
21101;SDS011;10709;49.006;12.100;2023-06-22T14:31:45;10.60;;;6.40;;
21101;SDS011;10709;49.006;12.100;2023-06-22T14:34:13;13.93;;;5.97;;
21101;SDS011;10709;49.006;12.100;2023-06-22T14:36:40;10.10;;;6.18;;
21101;SDS011;10709;49.006;12.100;2023-06-22T14:39:08;12.27;;;6.85;;
21101;SDS011;10709;49.006;12.100;2023-06-22T14:41:35;13.50;;;5.80;;